Terminal Aerodrome Forecast
Issued by NWS

Home | Current Version | Previous Version | Text Only | Print | Product List | Glossary On
Versions: 1 2 3 4 5 6 7 8 9 10 11 12 13 14
000
FTUS44 KLZK 011100
TAFHRO
TAF
KHRO 011120Z 0112/0212 16008KT P6SM VCTS SCT025 BKN040CB
      TEMPO 0112/0114 VRB15G30KT 3SM -TSRA BR OVC025CB
     FM011400 19012G20KT P6SM SCT025 SCT060
     FM020000 16009KT P6SM SCT040 SCT100
     FM020200 16008KT P6SM VCTS SCT040CB BKN100=

USA.gov is the U.S. government's official web portal to all federal, state and local government web resources and services.